createdAt,value
2023-02-04T00:00:13.073Z,-0.35
2023-02-04T00:05:22.320Z,-0.34
2023-02-04T00:10:30.832Z,-0.35
2023-02-04T00:15:39.480Z,-0.33
2023-02-04T00:20:47.606Z,-0.33
2023-02-04T00:25:56.095Z,-0.33
2023-02-04T00:31:04.155Z,-0.33
2023-02-04T00:36:12.427Z,-0.32
2023-02-04T00:41:21.307Z,-0.32
2023-02-04T00:46:30.113Z,-0.33
2023-02-04T00:51:39.193Z,-0.33
2023-02-04T00:56:47.781Z,-0.34
2023-02-04T01:01:55.244Z,-0.35
2023-02-04T01:07:03.624Z,-0.35
2023-02-04T01:12:12.452Z,-0.34
2023-02-04T01:17:21.570Z,-0.33
2023-02-04T01:22:29.858Z,-0.32
2023-02-04T01:27:38.407Z,-0.32
2023-02-04T01:32:46.644Z,-0.32
2023-02-04T01:37:55.105Z,-0.31
2023-02-04T01:43:03.253Z,-0.32
2023-02-04T01:48:13.035Z,-0.33
2023-02-04T01:53:24.406Z,-0.34
2023-02-04T01:58:35.091Z,-0.36
2023-02-04T02:03:43.520Z,-0.36
2023-02-04T02:08:51.782Z,-0.37
2023-02-04T02:14:00.224Z,-0.37
2023-02-04T02:19:12.487Z,-0.38
2023-02-04T02:24:34.703Z,-0.39
2023-02-04T02:29:43.967Z,-0.40
2023-02-04T02:34:51.309Z,-0.41
2023-02-04T02:39:59.078Z,-0.44
2023-02-04T02:45:09.315Z,-0.46
2023-02-04T02:50:20.079Z,-0.50
2023-02-04T02:55:29.518Z,-0.54
2023-02-04T03:00:38.038Z,-0.59
2023-02-04T03:05:48.585Z,-0.65
2023-02-04T03:10:56.187Z,-0.68
2023-02-04T03:16:05.184Z,-0.73
2023-02-04T03:21:12.869Z,-0.77
2023-02-04T03:26:20.480Z,-0.82
2023-02-04T03:31:28.081Z,-0.86
2023-02-04T03:36:35.472Z,-0.90
2023-02-04T03:41:42.815Z,-0.96
2023-02-04T03:46:50.470Z,-0.96
2023-02-04T03:51:57.771Z,-0.98
2023-02-04T03:57:05.286Z,-1.02
2023-02-04T04:02:13.064Z,-1.06
2023-02-04T04:07:20.500Z,-1.19
2023-02-04T04:12:27.756Z,-1.16
2023-02-04T04:17:34.968Z,-1.23
2023-02-04T04:22:42.725Z,-1.28
2023-02-04T04:27:50.007Z,-1.32
2023-02-04T04:32:57.309Z,-1.34
2023-02-04T04:38:04.921Z,-1.36
2023-02-04T04:43:12.417Z,-1.38
2023-02-04T04:48:20.739Z,-1.43
2023-02-04T04:53:28.335Z,-1.47
2023-02-04T04:58:35.818Z,-1.54
2023-02-04T05:03:43.790Z,-1.60
2023-02-04T05:08:51.388Z,-1.66
2023-02-04T05:13:58.847Z,-1.72
2023-02-04T05:19:06.354Z,-1.78
2023-02-04T05:24:14.342Z,-1.83
2023-02-04T05:29:21.638Z,-1.87
2023-02-04T05:34:28.870Z,-1.92
2023-02-04T05:39:36.469Z,-1.97
2023-02-04T05:44:43.808Z,-1.99
2023-02-04T05:49:51.204Z,-2.02
2023-02-04T05:54:58.517Z,-2.05
2023-02-04T06:00:06.479Z,-2.07
2023-02-04T06:05:20.090Z,-2.08
2023-02-04T06:10:28.018Z,-2.11
2023-02-04T06:15:35.206Z,-2.13
2023-02-04T06:20:42.659Z,-2.16
2023-02-04T06:25:50.740Z,-2.18
2023-02-04T06:30:58.129Z,-2.21
2023-02-04T06:36:06.090Z,-2.22
2023-02-04T06:41:13.611Z,-2.23
2023-02-04T06:46:21.166Z,-2.24
2023-02-04T06:51:28.707Z,-2.25
2023-02-04T06:56:36.189Z,-2.25
2023-02-04T07:01:44.106Z,-2.26
2023-02-04T07:06:51.996Z,-2.27
2023-02-04T07:11:59.370Z,-2.28
2023-02-04T07:17:06.643Z,-2.27
2023-02-04T07:22:13.928Z,-2.28
2023-02-04T07:27:21.642Z,-2.27
2023-02-04T07:32:33.432Z,-2.25
2023-02-04T07:37:40.777Z,-2.23
2023-02-04T07:42:48.173Z,-2.21
2023-02-04T07:47:57.294Z,-2.17
2023-02-04T07:53:04.899Z,-2.13
2023-02-04T07:58:12.415Z,-2.06
2023-02-04T08:03:19.833Z,-2.00
2023-02-04T08:08:27.617Z,-1.94
2023-02-04T08:13:35.145Z,-1.89
2023-02-04T08:18:42.692Z,-1.86
2023-02-04T08:23:50.157Z,-1.84
2023-02-04T08:28:57.642Z,-1.80
2023-02-04T08:34:05.275Z,-1.78
2023-02-04T08:39:13.037Z,-1.73
2023-02-04T08:44:20.461Z,-1.68
2023-02-04T08:49:28.076Z,-1.62
2023-02-04T08:54:35.694Z,-1.54
2023-02-04T08:59:43.019Z,-1.49
2023-02-04T09:04:50.445Z,-1.43
2023-02-04T09:09:58.487Z,-1.40
2023-02-04T09:15:07.051Z,-1.39
2023-02-04T09:20:15.778Z,-1.36
2023-02-04T09:25:23.165Z,-1.34
2023-02-04T09:30:30.994Z,-1.31
2023-02-04T09:35:39.025Z,-1.28
2023-02-04T09:40:49.456Z,-1.25
2023-02-04T09:45:57.745Z,-1.21
2023-02-04T09:51:09.760Z,-1.19
2023-02-04T09:56:17.935Z,-1.15
2023-02-04T10:01:25.482Z,-1.11
2023-02-04T10:06:33.076Z,-1.07
2023-02-04T10:11:43.518Z,-1.03
2023-02-04T10:16:58.845Z,-1.02
2023-02-04T10:22:12.880Z,-1.00
2023-02-04T10:27:20.091Z,-1.00
2023-02-04T10:32:33.753Z,-0.98
2023-02-04T10:37:41.117Z,-0.96
2023-02-04T10:42:53.779Z,-0.92
2023-02-04T10:48:01.130Z,-0.89
2023-02-04T10:53:38.269Z,-0.88
2023-02-04T10:58:46.329Z,-0.84
2023-02-04T11:03:54.392Z,-0.82
2023-02-04T11:09:04.126Z,-0.81
2023-02-04T11:14:29.905Z,-0.80
2023-02-04T11:19:40.334Z,-0.80
2023-02-04T11:24:48.011Z,-0.79
2023-02-04T11:30:07.123Z,-0.79
2023-02-04T11:35:29.079Z,-0.79
2023-02-04T11:40:37.544Z,-0.79
2023-02-04T11:45:45.276Z,-0.77
2023-02-04T11:51:01.346Z,-0.74
2023-02-04T11:56:09.076Z,-0.69
2023-02-04T12:01:23.052Z,-0.64
2023-02-04T12:06:32.438Z,-0.59
2023-02-04T12:11:39.839Z,-0.52
2023-02-04T12:16:49.206Z,-0.47
2023-02-04T12:21:56.574Z,-0.42
2023-02-04T12:27:04.160Z,-0.37
2023-02-04T12:32:11.501Z,-0.31
2023-02-04T12:37:18.881Z,-0.24
2023-02-04T12:42:26.277Z,-0.16
2023-02-04T12:47:33.395Z,-0.12
2023-02-04T12:52:40.802Z,-0.10
2023-02-04T12:57:48.054Z,-0.10
2023-02-04T13:02:59.514Z,-0.12
2023-02-04T13:08:07.153Z,-0.16
2023-02-04T13:13:15.043Z,-0.23
2023-02-04T13:18:22.623Z,-0.27
2023-02-04T13:23:29.952Z,-0.28
2023-02-04T13:28:37.724Z,-0.29
2023-02-04T13:33:45.035Z,-0.30
2023-02-04T13:38:52.474Z,-0.29
2023-02-04T13:44:00.076Z,-0.29
2023-02-04T13:49:07.719Z,-0.29
2023-02-04T13:54:15.181Z,-0.27
2023-02-04T13:59:22.440Z,-0.27
2023-02-04T14:04:29.715Z,-0.29
2023-02-04T14:09:36.901Z,-0.28
2023-02-04T14:14:44.692Z,-0.26
2023-02-04T14:19:52.569Z,-0.25
2023-02-04T14:25:00.232Z,-0.25
2023-02-04T14:30:08.768Z,-0.25
2023-02-04T14:35:17.000Z,-0.26
2023-02-04T14:40:24.591Z,-0.28
2023-02-04T14:45:32.021Z,-0.33
2023-02-04T14:50:39.482Z,-0.36
2023-02-04T14:55:46.983Z,-0.40
2023-02-04T15:00:54.421Z,-0.43
2023-02-04T15:06:01.813Z,-0.47
2023-02-04T15:11:09.283Z,-0.50
2023-02-04T15:16:16.982Z,-0.53
2023-02-04T15:21:24.775Z,-0.56
2023-02-04T15:26:32.162Z,-0.58
2023-02-04T15:31:39.483Z,-0.61
2023-02-04T15:36:46.962Z,-0.65
2023-02-04T15:41:54.231Z,-0.67
2023-02-04T15:47:01.574Z,-0.71
2023-02-04T15:52:19.459Z,-0.76
2023-02-04T15:57:30.446Z,-0.82
2023-02-04T16:02:37.883Z,-0.87
2023-02-04T16:07:45.543Z,-0.93
2023-02-04T16:12:55.422Z,-0.99
2023-02-04T16:18:02.769Z,-1.04
2023-02-04T16:23:10.386Z,-1.11
2023-02-04T16:28:17.608Z,-1.13
2023-02-04T16:33:25.936Z,-1.17
2023-02-04T16:38:33.312Z,-1.21
2023-02-04T16:43:40.879Z,-1.23
2023-02-04T16:48:48.329Z,-1.25
2023-02-04T16:53:55.701Z,-1.29
2023-02-04T16:59:03.001Z,-1.32
2023-02-04T17:04:10.489Z,-1.35
2023-02-04T17:09:17.893Z,-1.39
2023-02-04T17:14:25.800Z,-1.43
2023-02-04T17:19:33.141Z,-1.46
2023-02-04T17:24:44.299Z,-1.50
2023-02-04T17:29:51.680Z,-1.53
2023-02-04T17:34:59.299Z,-1.58
2023-02-04T17:40:07.809Z,-1.61
2023-02-04T17:45:16.386Z,-1.63
2023-02-04T17:50:24.245Z,-1.65
2023-02-04T17:55:33.222Z,-1.68
2023-02-04T18:00:41.021Z,-1.68
2023-02-04T18:05:50.536Z,-1.67
2023-02-04T18:10:58.592Z,-1.68
2023-02-04T18:16:20.216Z,-1.68
2023-02-04T18:21:29.542Z,-1.69
2023-02-04T18:26:41.247Z,-1.76
2023-02-04T18:31:54.967Z,-1.78
2023-02-04T18:37:02.461Z,-1.85
2023-02-04T18:42:16.641Z,-1.92
2023-02-04T18:47:33.759Z,-1.98
2023-02-04T18:52:48.160Z,-2.07
2023-02-04T18:57:55.524Z,-2.12
2023-02-04T19:03:12.280Z,-2.18
2023-02-04T19:08:34.064Z,-2.25
2023-02-04T19:13:43.736Z,-2.31
2023-02-04T19:18:51.247Z,-2.35
2023-02-04T19:24:10.236Z,-2.41
2023-02-04T19:29:41.994Z,-2.44
2023-02-04T19:34:49.576Z,-2.45
2023-02-04T19:39:57.543Z,-2.45
2023-02-04T19:45:14.965Z,-2.46
2023-02-04T19:50:31.123Z,-2.45
2023-02-04T19:55:43.886Z,-2.41
2023-02-04T20:01:05.466Z,-2.38
2023-02-04T20:06:27.932Z,-2.35
2023-02-04T20:11:50.452Z,-2.30
2023-02-04T20:16:59.650Z,-2.26
2023-02-04T20:22:40.705Z,-2.23
2023-02-04T20:27:50.135Z,-2.20
2023-02-04T20:32:58.693Z,-2.18
2023-02-04T20:38:19.050Z,-2.13
2023-02-04T20:43:26.779Z,-2.09
2023-02-04T20:48:37.102Z,-2.07
2023-02-04T20:53:47.123Z,-2.04
2023-02-04T20:58:56.065Z,-2.03
2023-02-04T21:04:15.524Z,-2.00
2023-02-04T21:09:26.530Z,-1.98
2023-02-04T21:14:33.988Z,-1.96
2023-02-04T21:19:41.378Z,-1.94
2023-02-04T21:24:48.802Z,-1.92
2023-02-04T21:29:56.200Z,-1.91
2023-02-04T21:35:03.841Z,-1.88
2023-02-04T21:40:13.092Z,-1.88
2023-02-04T21:45:21.860Z,-1.89
2023-02-04T21:50:29.642Z,-1.91
2023-02-04T21:55:37.585Z,-1.92
2023-02-04T22:00:44.962Z,-1.92
2023-02-04T22:05:52.528Z,-1.93
2023-02-04T22:11:00.891Z,-1.93
2023-02-04T22:16:08.607Z,-1.94
2023-02-04T22:21:16.238Z,-1.94
2023-02-04T22:26:23.760Z,-1.95
2023-02-04T22:31:31.193Z,-1.95
2023-02-04T22:36:38.974Z,-1.93
2023-02-04T22:41:46.661Z,-1.92
2023-02-04T22:46:54.138Z,-1.90
2023-02-04T22:52:02.054Z,-1.89
2023-02-04T22:57:09.663Z,-1.87
2023-02-04T23:02:17.198Z,-1.86
2023-02-04T23:07:24.824Z,-1.85
2023-02-04T23:12:32.274Z,-1.84
2023-02-04T23:17:39.647Z,-1.92
2023-02-04T23:22:47.090Z,-1.83
2023-02-04T23:27:54.575Z,-1.82
2023-02-04T23:33:01.927Z,-1.84
2023-02-04T23:38:09.607Z,-1.87
2023-02-04T23:43:16.836Z,-1.90
2023-02-04T23:48:24.976Z,-1.92
2023-02-04T23:53:32.462Z,-1.94
2023-02-04T23:58:40.143Z,-1.96
